Time;durP1;ratioP1;P1;durP2;ratioP2;P2;SDS_P1;SDS_P2;PMS_P1;PMS_P2;Temp;Humidity;BMP_temperature;BMP_pressure;BME280_temperature;BME280_humidity;BME280_pressure;Samples;Min_cycle;Max_cycle;Signal;HPM_P1;HPM_P2
2021/03/29 00:01:23;;;;;;;6.30;1.77;;;8.70;88.60;;;;;;5090476;28;20309;-82
2021/03/29 00:03:49;;;;;;;4.95;1.48;;;8.70;88.60;;;;;;5081395;28;20048;-84
2021/03/29 00:06:15;;;;;;;9.35;2.38;;;8.70;88.40;;;;;;5053780;28;20047;-83
2021/03/29 00:08:42;;;;;;;4.60;1.40;;;8.70;88.40;;;;;;5061183;28;20044;-83
2021/03/29 00:11:10;;;;;;;7.15;1.00;;;8.60;88.30;;;;;;5090917;28;20324;-83
2021/03/29 00:13:37;;;;;;;4.68;1.00;;;8.60;88.20;;;;;;5082403;28;20104;-82
2021/03/29 00:16:04;;;;;;;12.60;0.90;;;8.60;88.30;;;;;;5088167;28;20063;-83
2021/03/29 00:18:31;;;;;;;4.20;0.63;;;8.50;88.20;;;;;;5088879;28;20096;-82
2021/03/29 00:21:03;;;;;;;6.47;1.23;;;8.50;88.30;;;;;;5071147;28;20127;-83
2021/03/29 00:23:30;;;;;;;6.78;0.90;;;8.50;88.40;;;;;;5071309;28;20040;-84
2021/03/29 00:25:57;;;;;;;4.10;0.47;;;8.50;88.40;;;;;;5088800;28;20432;-84
2021/03/29 00:28:22;;;;;;;3.90;0.32;;;8.50;88.60;;;;;;5070320;28;20799;-82
2021/03/29 00:30:50;;;;;;;11.80;2.53;;;8.50;88.40;;;;;;5098331;28;20069;-82
2021/03/29 00:33:17;;;;;;;6.95;0.63;;;8.60;88.40;;;;;;5101371;28;20416;-82
2021/03/29 00:35:46;;;;;;;5.00;0.80;;;8.60;88.40;;;;;;5054759;28;20076;-83
2021/03/29 00:38:14;;;;;;;6.43;0.98;;;8.60;88.30;;;;;;5088074;28;20040;-81
2021/03/29 00:40:49;;;;;;;3.70;0.82;;;8.60;88.40;;;;;;5070732;28;20386;-82
2021/03/29 00:43:24;;;;;;;3.90;0.60;;;8.60;88.30;;;;;;5104965;28;20350;-82
2021/03/29 00:45:52;;;;;;;10.60;1.38;;;8.60;88.30;;;;;;5081269;28;20044;-83
2021/03/29 00:48:19;;;;;;;8.93;0.50;;;8.60;88.20;;;;;;5087503;28;20046;-81
2021/03/29 00:50:53;;;;;;;4.47;0.90;;;8.60;88.30;;;;;;5060589;28;20089;-83
2021/03/29 00:53:20;;;;;;;9.82;1.85;;;8.70;88.40;;;;;;5082994;28;20032;-83
2021/03/29 00:55:49;;;;;;;4.35;0.85;;;8.70;88.40;;;;;;5092156;28;20123;-82
2021/03/29 00:58:20;;;;;;;5.80;0.60;;;8.60;88.40;;;;;;5091896;28;20043;-81
2021/03/29 01:01:08;;;;;;;4.68;1.02;;;8.60;88.30;;;;;;5101873;28;20241;-82
2021/03/29 01:03:37;;;;;;;8.32;2.20;;;8.60;87.90;;;;;;5081020;28;20036;-82
2021/03/29 01:06:07;;;;;;;5.70;0.82;;;8.70;88.10;;;;;;5112195;28;20039;-82
2021/03/29 01:08:39;;;;;;;4.63;0.82;;;8.70;88.90;;;;;;5094538;28;20092;-81
2021/03/29 01:11:07;;;;;;;4.93;0.90;;;8.80;87.90;;;;;;5094151;28;20039;-83
2021/03/29 01:13:36;;;;;;;4.00;0.47;;;8.80;88.00;;;;;;5086282;28;20042;-82
2021/03/29 01:16:05;;;;;;;4.82;0.40;;;8.80;87.80;;;;;;5093198;28;20046;-82
2021/03/29 01:18:32;;;;;;;4.45;0.90;;;8.80;87.90;;;;;;5094549;28;20416;-82
2021/03/29 01:21:07;;;;;;;5.63;0.60;;;8.90;87.90;;;;;;5094669;28;20035;-80
2021/03/29 01:23:34;;;;;;;8.68;1.35;;;8.90;87.90;;;;;;5112375;28;20039;-80
2021/03/29 01:26:27;;;;;;;4.78;0.52;;;8.90;87.70;;;;;;5092341;28;20170;-80
2021/03/29 01:28:53;;;;;;;2.05;0.43;;;8.90;87.70;;;;;;5089179;28;20356;-81
2021/03/29 01:31:21;;;;;;;4.07;1.05;;;8.90;87.90;;;;;;5093476;28;20046;-81
2021/03/29 01:33:48;;;;;;;8.60;0.98;;;9.00;87.90;;;;;;5081598;28;20043;-81
2021/03/29 01:36:15;;;;;;;8.05;0.85;;;8.90;87.70;;;;;;5073450;28;20424;-81
2021/03/29 01:38:42;;;;;;;8.38;2.22;;;8.90;87.90;;;;;;5074092;28;20044;-83
2021/03/29 01:41:09;;;;;;;7.05;0.90;;;8.90;87.80;;;;;;5091255;28;20482;-80
2021/03/29 01:43:36;;;;;;;4.70;0.40;;;9.00;88.50;;;;;;5091385;28;20399;-81
2021/03/29 01:46:05;;;;;;;4.35;0.82;;;9.00;87.60;;;;;;5082694;28;20035;-81
2021/03/29 01:48:31;;;;;;;5.18;0.98;;;9.00;87.70;;;;;;5094143;28;20580;-82
2021/03/29 01:50:57;;;;;;;7.43;0.75;;;9.00;87.70;;;;;;5093425;28;20428;-81
2021/03/29 01:53:25;;;;;;;7.70;0.98;;;9.00;87.60;;;;;;5076391;28;20055;-80
2021/03/29 01:55:52;;;;;;;7.22;1.00;;;9.00;87.50;;;;;;5092889;28;20079;-80
2021/03/29 01:58:18;;;;;;;6.38;1.17;;;9.10;87.70;;;;;;5035609;28;20524;-81
2021/03/29 02:00:50;;;;;;;5.82;1.00;;;9.00;87.70;;;;;;5082837;28;20110;-83
2021/03/29 02:03:16;;;;;;;4.85;1.05;;;9.00;87.80;;;;;;5110194;28;20104;-82
2021/03/29 02:05:43;;;;;;;3.13;0.50;;;9.00;87.70;;;;;;5093747;28;20044;-81
2021/03/29 02:08:10;;;;;;;5.10;1.02;;;9.10;87.60;;;;;;5087520;28;20425;-82
2021/03/29 02:10:38;;;;;;;3.03;0.90;;;9.10;87.90;;;;;;5073358;28;20336;-84
2021/03/29 02:13:11;;;;;;;5.47;0.65;;;9.10;87.90;;;;;;5059003;28;20044;-82
2021/03/29 02:15:38;;;;;;;7.75;1.20;;;9.10;87.60;;;;;;5112429;28;20039;-83
2021/03/29 02:18:08;;;;;;;6.55;1.10;;;9.00;87.60;;;;;;5092756;28;20123;-82
2021/03/29 02:20:36;;;;;;;3.65;0.52;;;9.10;87.50;;;;;;5092967;28;20040;-81
2021/03/29 02:23:04;;;;;;;5.57;0.57;;;9.10;87.70;;;;;;5111146;28;20126;-83
2021/03/29 02:25:31;;;;;;;6.82;0.52;;;9.10;87.20;;;;;;5111045;28;20085;-81
2021/03/29 02:27:59;;;;;;;5.13;1.70;;;9.10;87.20;;;;;;5110323;28;20495;-82
2021/03/29 02:30:28;;;;;;;8.05;0.60;;;9.20;87.20;;;;;;5108885;28;20046;-81
2021/03/29 02:32:57;;;;;;;8.88;1.85;;;9.10;87.20;;;;;;5088188;28;20131;-82
2021/03/29 02:35:24;;;;;;;4.93;0.68;;;9.10;87.10;;;;;;5086568;28;20131;-83
2021/03/29 02:37:53;;;;;;;4.03;0.70;;;9.10;87.20;;;;;;5081588;28;20052;-81
2021/03/29 02:40:21;;;;;;;10.88;0.90;;;9.20;87.50;;;;;;5110094;28;20120;-81
2021/03/29 02:42:49;;;;;;;5.50;1.10;;;9.20;87.20;;;;;;5105425;28;20120;-82
2021/03/29 02:45:18;;;;;;;4.75;2.17;;;9.20;87.10;;;;;;5053346;28;20063;-82
2021/03/29 02:47:45;;;;;;;5.57;0.82;;;9.20;86.80;;;;;;5080178;28;20063;-81
2021/03/29 02:50:17;;;;;;;6.35;0.98;;;9.20;87.20;;;;;;5092195;28;20039;-82
2021/03/29 02:52:46;;;;;;;9.50;1.50;;;9.30;87.20;;;;;;5093375;28;20045;-83
2021/03/29 02:55:13;;;;;;;7.28;1.20;;;9.30;86.90;;;;;;5109750;28;20039;-80
2021/03/29 02:57:43;;;;;;;3.30;1.40;;;9.30;86.90;;;;;;5110467;28;20058;-82
2021/03/29 03:00:17;;;;;;;4.93;0.68;;;9.30;86.70;;;;;;5109538;28;20151;-82
2021/03/29 03:02:44;;;;;;;2.53;0.68;;;9.30;86.70;;;;;;5110298;28;20040;-82
2021/03/29 03:05:12;;;;;;;4.53;0.82;;;9.30;87.30;;;;;;5073576;28;20047;-81
2021/03/29 03:07:39;;;;;;;7.10;1.10;;;9.30;86.40;;;;;;5089866;28;20040;-82
2021/03/29 03:10:15;;;;;;;4.75;1.30;;;9.40;86.30;;;;;;5054770;28;20040;-80
2021/03/29 03:12:45;;;;;;;8.98;1.85;;;9.40;86.30;;;;;;5055581;28;20378;-81
2021/03/29 03:15:16;;;;;;;8.13;3.15;;;9.40;86.30;;;;;;5088977;28;20048;-83
2021/03/29 03:17:43;;;;;;;3.92;1.10;;;9.30;86.00;;;;;;5074957;28;20421;-82
2021/03/29 03:20:10;;;;;;;5.20;1.60;;;9.30;85.90;;;;;;5108212;28;20043;-82
2021/03/29 03:23:03;;;;;;;5.63;0.50;;;9.30;86.00;;;;;;5075673;28;20043;-82
2021/03/29 03:25:34;;;;;;;11.38;0.77;;;9.30;85.40;;;;;;5109584;28;20059;-82
2021/03/29 03:28:02;;;;;;;2.47;0.75;;;9.20;86.10;;;;;;5089342;28;20044;-81
2021/03/29 03:30:32;;;;;;;6.82;1.30;;;9.20;86.20;;;;;;5099124;28;20040;-81
2021/03/29 03:32:59;;;;;;;6.88;2.10;;;9.20;86.30;;;;;;5088308;28;20051;-81
2021/03/29 03:35:27;;;;;;;9.23;1.15;;;9.20;86.30;;;;;;5082824;28;20040;-81
2021/03/29 03:38:02;;;;;;;4.20;0.70;;;9.30;86.50;;;;;;5109680;28;20075;-82
2021/03/29 03:40:30;;;;;;;4.00;1.27;;;9.20;86.30;;;;;;5109393;28;20046;-82
2021/03/29 03:43:00;;;;;;;6.72;0.95;;;9.30;86.50;;;;;;5085456;28;20060;-81
2021/03/29 03:45:30;;;;;;;10.95;1.73;;;9.30;86.30;;;;;;5071165;28;20044;-83
2021/03/29 03:47:59;;;;;;;5.43;1.77;;;9.30;87.00;;;;;;5090178;28;20040;-81
2021/03/29 03:50:26;;;;;;;5.95;1.05;;;9.30;86.40;;;;;;5088659;28;20540;-81
2021/03/29 03:52:55;;;;;;;7.03;1.10;;;9.20;86.30;;;;;;5054438;28;20722;-82
2021/03/29 03:55:22;;;;;;;7.35;1.67;;;9.20;86.40;;;;;;5070574;28;20069;-82
2021/03/29 03:57:48;;;;;;;10.50;0.80;;;9.20;86.50;;;;;;5071492;28;20061;-83
2021/03/29 04:00:17;;;;;;;8.48;1.02;;;9.30;86.60;;;;;;5070751;28;20044;-82
2021/03/29 04:02:47;;;;;;;8.25;0.65;;;9.30;86.50;;;;;;5089380;28;20046;-81
2021/03/29 04:05:15;;;;;;;4.80;0.80;;;9.20;86.70;;;;;;5071572;28;20321;-80
2021/03/29 04:07:41;;;;;;;3.50;0.95;;;9.20;86.60;;;;;;5091526;28;20060;-81
2021/03/29 04:10:16;;;;;;;9.18;1.15;;;9.20;86.80;;;;;;5074124;28;20145;-82
2021/03/29 04:12:46;;;;;;;3.75;1.30;;;9.20;86.70;;;;;;5109083;28;20044;-82
2021/03/29 04:15:13;;;;;;;9.73;1.10;;;9.20;86.60;;;;;;5070497;28;20044;-82
2021/03/29 04:17:39;;;;;;;5.57;1.05;;;9.20;86.80;;;;;;5070940;28;20344;-81
2021/03/29 04:20:07;;;;;;;9.52;1.20;;;9.20;86.80;;;;;;5053920;28;20040;-83
2021/03/29 04:22:33;;;;;;;7.32;1.10;;;9.20;86.70;;;;;;5071596;28;20425;-83
2021/03/29 04:24:59;;;;;;;5.47;1.02;;;9.20;86.70;;;;;;5089940;28;20051;-82
2021/03/29 04:27:25;;;;;;;5.68;1.25;;;9.10;86.60;;;;;;5074486;28;20079;-82
2021/03/29 04:29:51;;;;;;;7.28;1.67;;;9.10;86.70;;;;;;5076004;28;20036;-81
2021/03/29 04:32:16;;;;;;;7.07;1.38;;;9.10;86.80;;;;;;5073167;28;20042;-82
2021/03/29 04:34:43;;;;;;;5.18;1.55;;;9.10;86.90;;;;;;5073844;28;20053;-82
2021/03/29 04:37:09;;;;;;;5.00;0.60;;;9.10;87.00;;;;;;5073858;28;20036;-81
2021/03/29 04:39:34;;;;;;;4.05;0.55;;;9.00;87.00;;;;;;5066936;28;20039;-81
2021/03/29 04:42:00;;;;;;;6.57;1.75;;;9.10;87.20;;;;;;5081828;28;20040;-82
2021/03/29 04:44:26;;;;;;;4.78;1.73;;;9.10;87.20;;;;;;5058767;28;69060;-82
2021/03/29 04:46:52;;;;;;;8.57;1.85;;;9.10;87.20;;;;;;5057397;28;20036;-83
2021/03/29 04:49:18;;;;;;;7.38;1.15;;;9.10;87.20;;;;;;5036680;28;20055;-81
2021/03/29 04:51:44;;;;;;;4.60;0.80;;;9.10;87.20;;;;;;5076157;28;20433;-81
2021/03/29 04:54:09;;;;;;;6.78;1.25;;;9.10;87.10;;;;;;5040736;28;20463;-82
2021/03/29 04:56:35;;;;;;;11.60;2.47;;;9.10;87.20;;;;;;5057784;28;20119;-82
2021/03/29 04:59:01;;;;;;;11.07;1.80;;;9.10;87.20;;;;;;5057482;28;20041;-83
2021/03/29 05:01:27;;;;;;;5.93;1.30;;;9.10;87.20;;;;;;5058661;28;20435;-82
2021/03/29 05:03:53;;;;;;;7.50;2.05;;;9.10;87.20;;;;;;5051662;28;20404;-82
2021/03/29 05:06:18;;;;;;;7.13;0.98;;;9.00;87.30;;;;;;5060687;28;20048;-82
2021/03/29 05:08:44;;;;;;;8.13;1.75;;;9.10;87.30;;;;;;5061541;28;20115;-81
2021/03/29 05:11:11;;;;;;;9.30;1.63;;;9.00;87.20;;;;;;5063413;28;20076;-83
2021/03/29 05:13:37;;;;;;;5.03;1.52;;;9.10;87.20;;;;;;5042840;28;20044;-81
2021/03/29 05:16:03;;;;;;;5.13;1.10;;;9.10;87.40;;;;;;5037659;28;20036;-81
2021/03/29 05:18:30;;;;;;;6.78;1.30;;;9.10;87.40;;;;;;5044703;28;20054;-81
2021/03/29 05:20:56;;;;;;;10.20;1.95;;;9.10;87.50;;;;;;5043961;28;20683;-81
2021/03/29 05:23:22;;;;;;;6.80;1.52;;;9.10;87.40;;;;;;5050562;28;20048;-83
2021/03/29 05:25:48;;;;;;;7.28;1.27;;;9.00;87.50;;;;;;5059926;28;20059;-81
2021/03/29 05:28:14;;;;;;;6.38;1.05;;;9.10;87.70;;;;;;5061722;28;20037;-82
2021/03/29 05:30:40;;;;;;;10.38;3.55;;;9.20;87.60;;;;;;5064550;28;20040;-82
2021/03/29 05:33:06;;;;;;;8.50;1.15;;;9.20;87.70;;;;;;5063697;28;20430;-81
2021/03/29 05:35:33;;;;;;;6.18;1.70;;;9.20;87.70;;;;;;5061371;28;20040;-81
2021/03/29 05:37:59;;;;;;;7.15;3.28;;;9.30;87.60;;;;;;5025938;28;20043;-82
2021/03/29 05:40:25;;;;;;;6.78;1.50;;;9.20;87.50;;;;;;5046281;28;20333;-81
2021/03/29 05:42:51;;;;;;;8.02;2.60;;;9.30;87.60;;;;;;5062153;28;20036;-81
2021/03/29 05:45:18;;;;;;;4.60;1.10;;;9.30;87.50;;;;;;5081149;28;20064;-83
2021/03/29 05:47:44;;;;;;;8.90;2.10;;;9.30;87.50;;;;;;5086437;28;20071;-80
2021/03/29 05:50:15;;;;;;;7.72;1.90;;;9.30;87.20;;;;;;5062433;28;20133;-82
2021/03/29 05:52:42;;;;;;;13.60;2.85;;;9.40;87.50;;;;;;5084076;28;20059;-83
2021/03/29 05:55:33;;;;;;;6.70;2.40;;;9.40;87.30;;;;;;5065038;28;20044;-80
2021/03/29 06:00:42;;;;;;;10.20;1.30;;;9.50;87.40;;;;;;5076728;28;20159;-82
2021/03/29 06:03:26;;;;;;;8.13;1.13;;;9.50;87.40;;;;;;5059084;28;20067;-84
2021/03/29 06:05:53;;;;;;;;;;;9.50;86.90;;;;;;5062486;28;20048;-81
2021/03/29 06:08:19;;;;;;;9.45;2.90;;;9.50;86.40;;;;;;5084654;28;19962;-81
2021/03/29 06:10:46;;;;;;;10.02;2.10;;;9.50;87.30;;;;;;5063675;28;20039;-81
2021/03/29 06:13:23;;;;;;;13.70;2.85;;;9.50;87.30;;;;;;5057596;28;20033;-82
2021/03/29 06:16:07;;;;;;;10.32;2.88;;;9.50;87.30;;;;;;5080107;28;20045;-81
2021/03/29 06:18:38;;;;;;;6.78;1.45;;;9.50;87.10;;;;;;5081471;28;20117;-80
2021/03/29 06:21:10;;;;;;;8.88;1.17;;;9.50;87.30;;;;;;5076765;28;20123;-84
2021/03/29 06:23:38;;;;;;;8.80;1.02;;;9.40;87.50;;;;;;5056966;28;20305;-82
2021/03/29 06:26:31;;;;;;;9.73;1.67;;;9.40;87.50;;;;;;5063469;28;20064;-81
2021/03/29 06:28:57;;;;;;;8.30;1.73;;;9.30;87.30;;;;;;5076387;28;20530;-82
2021/03/29 06:31:30;;;;;;;7.68;1.80;;;9.30;87.60;;;;;;5084892;28;20472;-82
2021/03/29 06:33:57;;;;;;;8.68;1.33;;;9.30;87.70;;;;;;5066577;28;20111;-80
2021/03/29 06:36:38;;;;;;;11.48;2.70;;;9.30;87.70;;;;;;5084075;28;20052;-82
2021/03/29 06:39:21;;;;;;;4.72;1.05;;;9.40;87.60;;;;;;5042601;28;20048;-81
2021/03/29 06:41:57;;;;;;;8.27;1.13;;;9.40;87.10;;;;;;5050487;28;20044;-81
2021/03/29 06:44:25;;;;;;;9.90;2.13;;;9.50;87.60;;;;;;5063115;28;20047;-81
2021/03/29 06:47:13;;;;;;;6.80;0.95;;;9.80;88.70;;;;;;5069051;28;20044;-81
2021/03/29 06:49:43;;;;;;;9.70;1.83;;;10.40;86.10;;;;;;5071239;28;20032;-81
2021/03/29 06:52:38;;;;;;;10.30;2.53;;;10.50;86.60;;;;;;5070139;28;20036;-81
2021/03/29 06:55:23;;;;;;;11.65;1.67;;;10.30;84.20;;;;;;5058621;28;20075;-80
2021/03/29 06:57:59;;;;;;;;;;;10.20;86.60;;;;;;5055974;28;20476;-81
2021/03/29 07:00:33;;;;;;;7.30;1.55;;;10.10;84.40;;;;;;5083436;28;19920;-82
2021/03/29 07:03:10;;;;;;;5.07;1.30;;;10.00;86.50;;;;;;5065012;28;20044;-82
2021/03/29 07:05:37;;;;;;;11.25;3.03;;;10.00;86.50;;;;;;5068011;28;20484;-83
2021/03/29 07:08:05;;;;;;;4.63;1.05;;;10.00;87.00;;;;;;5066646;28;20046;-82
2021/03/29 07:10:32;;;;;;;7.07;1.45;;;9.90;87.10;;;;;;5087249;28;20600;-81
2021/03/29 07:12:58;;;;;;;14.18;1.80;;;10.00;86.90;;;;;;5083565;28;20161;-83
2021/03/29 07:15:24;;;;;;;9.07;1.90;;;10.00;86.90;;;;;;5070157;28;20040;-82
2021/03/29 07:17:51;;;;;;;7.10;2.08;;;10.00;87.80;;;;;;5085401;28;20094;-81
2021/03/29 07:20:25;;;;;;;5.50;1.60;;;10.10;87.10;;;;;;5062323;28;20036;-82
2021/03/29 07:22:53;;;;;;;11.70;1.58;;;10.10;87.00;;;;;;5062829;28;20429;-82
2021/03/29 07:25:21;;;;;;;11.32;1.98;;;10.20;87.10;;;;;;5047727;28;20042;-81
2021/03/29 07:27:55;;;;;;;10.07;1.95;;;10.30;87.10;;;;;;5071464;28;20348;-81
2021/03/29 07:31:00;;;;;;;8.05;2.33;;;10.60;86.70;;;;;;5042727;28;20345;-81
2021/03/29 07:33:54;;;;;;;9.85;1.70;;;11.80;82.70;;;;;;5011966;28;20045;-82
2021/03/29 07:36:39;;;;;;;5.90;1.30;;;12.80;81.10;;;;;;5008460;28;20050;-82
2021/03/29 07:39:08;;;;;;;11.85;2.30;;;13.50;77.50;;;;;;5062007;28;20060;-81
2021/03/29 07:41:40;;;;;;;10.98;1.50;;;14.10;81.80;;;;;;5070107;28;20043;-82
2021/03/29 07:44:14;;;;;;;8.02;1.50;;;14.50;79.80;;;;;;5046541;28;20043;-82
2021/03/29 07:46:43;;;;;;;10.00;2.72;;;14.90;80.00;;;;;;5088701;28;20046;-82
2021/03/29 07:49:41;;;;;;;12.93;1.83;;;15.10;78.90;;;;;;5086348;28;20059;-81
2021/03/29 07:52:34;;;;;;;11.48;1.85;;;15.30;69.80;;;;;;5061461;28;20046;-82
2021/03/29 07:55:14;;;;;;;7.93;2.00;;;15.50;73.10;;;;;;5064996;28;20063;-82
2021/03/29 07:57:43;;;;;;;9.35;1.67;;;15.70;77.70;;;;;;5079373;28;20119;-82
2021/03/29 08:00:25;;;;;;;11.98;1.98;;;15.80;77.10;;;;;;5065974;28;20039;-82
2021/03/29 08:03:18;;;;;;;11.15;2.05;;;15.80;73.40;;;;;;5079352;28;20046;-82
2021/03/29 08:05:49;;;;;;;8.38;1.50;;;16.10;75.60;;;;;;5063987;28;20059;-82
2021/03/29 08:08:27;;;;;;;8.05;3.08;;;16.20;74.40;;;;;;5062417;28;20452;-81
2021/03/29 08:10:59;;;;;;;11.35;2.15;;;16.20;71.20;;;;;;5083073;28;20764;-81
2021/03/29 08:13:55;;;;;;;10.77;2.20;;;16.30;74.60;;;;;;5083455;28;20040;-82
2021/03/29 08:16:25;;;;;;;8.48;1.40;;;16.40;70.00;;;;;;5075875;28;20333;-82
2021/03/29 08:19:20;;;;;;;11.15;2.58;;;16.60;73.40;;;;;;5076475;28;20047;-81
2021/03/29 08:21:58;;;;;;;10.73;1.58;;;16.50;67.80;;;;;;5079127;28;20027;-81
2021/03/29 08:24:33;;;;;;;10.35;1.80;;;16.60;72.70;;;;;;5064407;28;20403;-82
2021/03/29 08:27:00;;;;;;;9.07;1.80;;;16.80;74.80;;;;;;5076892;28;20052;-82
2021/03/29 08:29:40;;;;;;;9.35;2.53;;;16.90;74.10;;;;;;5080167;28;20051;-82
2021/03/29 08:32:09;;;;;;;10.70;2.33;;;17.10;73.30;;;;;;5059334;28;20044;-81
2021/03/29 08:34:41;;;;;;;13.73;3.33;;;17.10;73.70;;;;;;5066586;28;20472;-82
2021/03/29 08:37:08;;;;;;;12.57;2.33;;;17.20;74.50;;;;;;5064261;28;20468;-83
2021/03/29 08:39:46;;;;;;;13.63;3.13;;;17.40;74.70;;;;;;5052078;28;20044;-82
2021/03/29 08:42:13;;;;;;;10.63;2.10;;;17.30;70.60;;;;;;5084531;28;20039;-81
2021/03/29 08:44:43;;;;;;;9.05;2.17;;;17.20;73.90;;;;;;5051210;28;20424;-81
2021/03/29 08:47:14;;;;;;;14.02;1.95;;;17.00;74.10;;;;;;5066220;28;20043;-82
2021/03/29 08:49:42;;;;;;;11.27;2.03;;;16.80;73.80;;;;;;5062603;28;20036;-81
2021/03/29 08:52:09;;;;;;;12.57;1.92;;;16.70;74.70;;;;;;5062461;28;20420;-81
2021/03/29 08:54:35;;;;;;;17.95;3.28;;;16.70;74.70;;;;;;5080900;28;20043;-81
2021/03/29 08:57:04;;;;;;;10.18;1.48;;;16.60;74.80;;;;;;5066088;28;20056;-81
2021/03/29 08:59:33;;;;;;;13.90;2.28;;;16.40;73.00;;;;;;5065462;28;20047;-81
2021/03/29 09:02:11;;;;;;;8.52;2.00;;;16.30;75.00;;;;;;5068019;28;20040;-82
2021/03/29 09:04:57;;;;;;;14.77;2.72;;;16.10;75.70;;;;;;5085009;28;20057;-81
2021/03/29 09:07:31;;;;;;;7.95;1.40;;;16.10;74.00;;;;;;5068655;28;20048;-81
2021/03/29 09:09:58;;;;;;;12.65;3.03;;;16.10;75.10;;;;;;5070124;28;20036;-83
2021/03/29 09:12:30;;;;;;;9.50;1.60;;;16.00;76.30;;;;;;5074533;28;20037;-82
2021/03/29 09:14:57;;;;;;;10.25;2.38;;;15.80;75.10;;;;;;5064460;28;20052;-83
2021/03/29 09:17:24;;;;;;;8.75;2.45;;;15.50;76.90;;;;;;5086339;28;20347;-79
2021/03/29 09:19:50;;;;;;;13.00;2.20;;;15.40;77.30;;;;;;5079687;28;20064;-80
2021/03/29 09:22:35;;;;;;;14.48;2.08;;;15.30;78.20;;;;;;5070096;28;20047;-80
2021/03/29 09:25:03;;;;;;;9.32;2.45;;;15.20;75.20;;;;;;5064734;28;20415;-79
2021/03/29 09:27:35;;;;;;;8.25;1.75;;;15.10;77.60;;;;;;5084586;28;20139;-80
2021/03/29 09:30:07;;;;;;;11.35;3.83;;;14.90;78.10;;;;;;5083940;28;20040;-80
2021/03/29 09:32:34;;;;;;;10.98;2.25;;;14.90;78.70;;;;;;5086672;28;20047;-80
2021/03/29 09:35:01;;;;;;;9.93;2.40;;;14.80;79.00;;;;;;5080184;28;20417;-80
2021/03/29 09:37:30;;;;;;;9.82;2.67;;;14.80;79.10;;;;;;5070408;28;20589;-81
2021/03/29 09:40:00;;;;;;;7.78;2.13;;;14.80;78.60;;;;;;5072325;28;20058;-80
2021/03/29 09:42:38;;;;;;;9.73;2.42;;;14.90;78.90;;;;;;5089761;28;20099;-80
2021/03/29 09:45:07;;;;;;;9.95;3.05;;;14.90;79.10;;;;;;5078524;28;20051;-80
2021/03/29 09:47:34;;;;;;;17.05;3.70;;;14.90;78.40;;;;;;5074923;28;20058;-80
2021/03/29 09:50:00;;;;;;;11.82;2.97;;;15.00;78.90;;;;;;5068559;28;20120;-80
2021/03/29 09:52:36;;;;;;;13.45;2.88;;;15.10;78.00;;;;;;5065119;28;20032;-80
2021/03/29 09:55:03;;;;;;;7.10;2.22;;;15.10;78.50;;;;;;5069840;28;20036;-80
2021/03/29 09:57:49;;;;;;;12.65;3.17;;;15.10;78.70;;;;;;5055680;28;20052;-81
2021/03/29 10:00:19;;;;;;;10.02;2.03;;;15.20;78.40;;;;;;5054134;28;20115;-80
2021/03/29 10:02:59;;;;;;;8.68;3.00;;;15.30;79.00;;;;;;5088460;28;20060;-81
2021/03/29 10:05:33;;;;;;;5.80;2.63;;;15.40;78.40;;;;;;5090738;28;20067;-81
2021/03/29 10:07:59;;;;;;;9.95;2.17;;;15.30;76.80;;;;;;5055868;28;20071;-80
2021/03/29 10:10:32;;;;;;;11.05;3.67;;;15.30;77.30;;;;;;5066556;28;20099;-81
2021/03/29 10:13:12;;;;;;;13.05;2.95;;;15.30;75.80;;;;;;5080806;28;20059;-81
2021/03/29 10:15:39;;;;;;;9.77;2.75;;;15.30;76.80;;;;;;5087350;28;20435;-80
2021/03/29 10:18:10;;;;;;;11.20;2.40;;;15.10;78.40;;;;;;5082965;28;20047;-80
2021/03/29 10:20:38;;;;;;;8.27;2.40;;;15.00;78.00;;;;;;5070155;28;20093;-81
2021/03/29 10:23:27;;;;;;;9.27;3.58;;;14.90;78.70;;;;;;5085213;28;20119;-79
2021/03/29 10:26:24;;;;;;;8.70;3.50;;;14.90;75.30;;;;;;5084743;28;20460;-80
2021/03/29 10:28:59;;;;;;;10.07;2.22;;;14.90;76.30;;;;;;5063254;28;20078;-79
2021/03/29 10:31:25;;;;;;;7.82;2.33;;;15.10;78.50;;;;;;5086979;28;20052;-80
2021/03/29 10:33:51;;;;;;;8.35;2.97;;;15.10;79.60;;;;;;5083216;28;20122;-80
2021/03/29 10:36:19;;;;;;;14.25;5.15;;;15.10;79.10;;;;;;5070817;28;20047;-80
2021/03/29 10:38:45;;;;;;;12.02;2.75;;;15.10;78.50;;;;;;5089720;28;20093;-80
2021/03/29 10:41:12;;;;;;;14.38;3.25;;;15.10;78.80;;;;;;5048771;28;20046;-79
2021/03/29 10:43:39;;;;;;;13.40;4.00;;;15.10;78.60;;;;;;5062943;28;20353;-80
2021/03/29 10:46:05;;;;;;;9.40;3.28;;;15.10;79.20;;;;;;5081585;28;20053;-80
2021/03/29 10:48:31;;;;;;;14.65;3.78;;;15.20;79.70;;;;;;5067700;28;20044;-79
2021/03/29 10:50:59;;;;;;;15.07;4.10;;;15.40;79.00;;;;;;5048914;28;20036;-79
2021/03/29 10:53:25;;;;;;;10.38;3.60;;;15.50;78.60;;;;;;5051903;28;20069;-79
2021/03/29 10:55:51;;;;;;;10.57;3.72;;;15.70;79.00;;;;;;5085568;28;20132;-80
2021/03/29 10:58:16;;;;;;;11.38;3.40;;;15.70;79.00;;;;;;5070002;28;20078;-80
2021/03/29 11:00:42;;;;;;;9.77;4.15;;;15.70;78.10;;;;;;5037651;28;20098;-80
2021/03/29 11:03:08;;;;;;;14.95;4.03;;;15.60;78.20;;;;;;5048143;28;20051;-80
2021/03/29 11:05:34;;;;;;;9.68;4.18;;;15.60;78.10;;;;;;5031914;28;20167;-79
2021/03/29 11:08:01;;;;;;;12.55;3.63;;;15.60;78.90;;;;;;5078288;28;20402;-79
2021/03/29 11:10:27;;;;;;;8.00;3.45;;;15.70;78.90;;;;;;5079478;28;20097;-79
2021/03/29 11:12:53;;;;;;;15.20;3.80;;;15.70;78.60;;;;;;5071195;28;20040;-79
2021/03/29 11:15:18;;;;;;;11.23;4.50;;;15.80;78.40;;;;;;5077120;28;20045;-80
2021/03/29 11:17:44;;;;;;;14.48;4.97;;;15.80;77.80;;;;;;5062841;28;20063;-79
2021/03/29 11:20:11;;;;;;;15.23;4.93;;;15.80;78.10;;;;;;5082381;28;20123;-79
2021/03/29 11:22:37;;;;;;;11.98;3.95;;;15.80;77.80;;;;;;5068444;28;20169;-79
2021/03/29 11:25:04;;;;;;;16.80;5.50;;;15.70;78.30;;;;;;5066966;28;20485;-80
2021/03/29 11:27:30;;;;;;;15.20;3.67;;;15.70;78.50;;;;;;5086559;28;20441;-80
2021/03/29 11:29:56;;;;;;;14.93;4.57;;;15.70;78.70;;;;;;5066032;28;20036;-79
2021/03/29 11:32:22;;;;;;;13.63;4.97;;;15.70;78.80;;;;;;5070040;28;20497;-79
2021/03/29 11:34:48;;;;;;;11.02;4.47;;;15.70;78.70;;;;;;5077375;28;20115;-80
2021/03/29 11:37:14;;;;;;;12.25;4.30;;;15.70;78.30;;;;;;5042013;28;20032;-79
2021/03/29 11:39:39;;;;;;;10.02;3.70;;;15.60;78.30;;;;;;5064873;28;20090;-80
2021/03/29 11:42:06;;;;;;;14.30;4.65;;;15.60;77.80;;;;;;5045306;28;20040;-80
2021/03/29 11:44:32;;;;;;;10.75;5.20;;;15.60;77.80;;;;;;5060455;28;20048;-80
2021/03/29 11:46:58;;;;;;;10.00;3.95;;;15.50;78.00;;;;;;5083736;28;20060;-79
2021/03/29 11:49:23;;;;;;;12.18;4.22;;;15.50;78.30;;;;;;5084002;28;20040;-80
2021/03/29 11:51:49;;;;;;;10.93;4.68;;;15.50;77.90;;;;;;5052550;28;20105;-80
2021/03/29 11:54:15;;;;;;;11.25;3.85;;;15.50;78.40;;;;;;5085135;28;20063;-80
2021/03/29 11:56:41;;;;;;;10.63;3.80;;;15.50;78.50;;;;;;5070146;28;20500;-80
2021/03/29 11:59:07;;;;;;;11.52;3.95;;;15.50;78.40;;;;;;5043389;28;20047;-79
2021/03/29 12:04:17;;;;;;;11.45;4.70;;;15.50;77.30;;;;;;5078958;28;20041;-80
2021/03/29 12:09:34;;;;;;;12.35;5.43;;;15.50;77.70;;;;;;5080964;28;20032;-80
2021/03/29 12:12:05;;;;;;;11.18;4.53;;;15.60;77.80;;;;;;5080977;28;20425;-80
2021/03/29 12:14:35;;;;;;;10.15;4.40;;;15.60;78.10;;;;;;5066697;28;20349;-80
2021/03/29 12:17:03;;;;;;;14.30;5.00;;;15.70;77.40;;;;;;5069343;28;20064;-80
2021/03/29 12:19:30;;;;;;;12.40;5.05;;;15.70;77.70;;;;;;5069282;28;20059;-80
2021/03/29 12:21:59;;;;;;;12.75;4.15;;;15.80;77.50;;;;;;5063870;28;20502;-80
2021/03/29 12:24:30;;;;;;;13.57;4.70;;;15.80;77.20;;;;;;5062272;28;20036;-81
2021/03/29 12:27:03;;;;;;;8.48;3.97;;;15.90;76.70;;;;;;5066426;28;20056;-80
2021/03/29 12:29:40;;;;;;;16.00;6.50;;;16.00;76.40;;;;;;5050751;28;20101;-81
2021/03/29 12:32:12;;;;;;;16.05;5.82;;;16.00;76.20;;;;;;5081843;28;20041;-80
2021/03/29 12:34:46;;;;;;;12.93;4.47;;;16.00;74.40;;;;;;5063933;28;20093;-80
2021/03/29 12:37:18;;;;;;;11.13;4.63;;;16.00;75.90;;;;;;5077275;28;20380;-80
2021/03/29 12:39:53;;;;;;;10.95;3.95;;;16.00;76.10;;;;;;5066075;28;20431;-80
2021/03/29 12:42:29;;;;;;;18.33;4.18;;;16.00;75.70;;;;;;5061906;28;20115;-80
2021/03/29 12:44:55;;;;;;;6.10;3.47;;;16.10;74.90;;;;;;5060243;28;20097;-81
2021/03/29 12:47:33;;;;;;;10.32;4.20;;;16.30;76.20;;;;;;5051870;28;20376;-80
2021/03/29 12:50:15;;;;;;;11.23;4.53;;;16.20;74.70;;;;;;5073828;28;20529;-80
2021/03/29 12:52:41;;;;;;;15.15;4.35;;;16.10;73.80;;;;;;5090962;28;20481;-80
2021/03/29 12:55:09;;;;;;;12.18;4.47;;;16.10;76.40;;;;;;5073594;28;20059;-80
2021/03/29 12:57:35;;;;;;;8.25;3.90;;;16.20;76.60;;;;;;5080836;28;20044;-80
2021/03/29 13:00:23;;;;;;;10.60;3.88;;;16.20;76.30;;;;;;5038581;28;20048;-80
2021/03/29 13:02:51;;;;;;;13.90;4.30;;;16.20;76.80;;;;;;5078242;28;20109;-80
2021/03/29 13:05:23;;;;;;;8.52;3.40;;;16.20;77.10;;;;;;5036672;28;20044;-80
2021/03/29 13:08:13;;;;;;;11.32;3.92;;;16.40;76.80;;;;;;5052244;28;20075;-80
2021/03/29 13:11:06;;;;;;;11.02;4.10;;;16.40;76.10;;;;;;5088918;28;20044;-81
2021/03/29 13:13:33;;;;;;;8.17;2.67;;;16.40;75.40;;;;;;5067272;28;20040;-81